sensor_id;sensor_type;location;lat;lon;timestamp;temperature;humidity
9768;DHT22;4923;52.520;13.494;2023-05-10T00:00:55;11.10;1.00
9768;DHT22;4923;52.520;13.494;2023-05-10T00:03:42;11.10;1.00
9768;DHT22;4923;52.520;13.494;2023-05-10T00:06:29;11.00;1.00
9768;DHT22;4923;52.520;13.494;2023-05-10T00:09:17;11.00;1.00
9768;DHT22;4923;52.520;13.494;2023-05-10T00:12:04;10.90;1.00
9768;DHT22;4923;52.520;13.494;2023-05-10T00:14:51;10.90;1.00
9768;DHT22;4923;52.520;13.494;2023-05-10T00:17:38;10.90;1.00
9768;DHT22;4923;52.520;13.494;2023-05-10T00:20:25;10.70;1.00
9768;DHT22;4923;52.520;13.494;2023-05-10T00:23:12;10.70;1.00
9768;DHT22;4923;52.520;13.494;2023-05-10T00:26:00;10.70;1.00
9768;DHT22;4923;52.520;13.494;2023-05-10T00:28:47;10.70;1.00
9768;DHT22;4923;52.520;13.494;2023-05-10T00:31:34;10.60;1.00
9768;DHT22;4923;52.520;13.494;2023-05-10T00:34:21;10.50;1.00
9768;DHT22;4923;52.520;13.494;2023-05-10T00:37:08;10.50;1.00
9768;DHT22;4923;52.520;13.494;2023-05-10T00:39:55;10.40;1.00
9768;DHT22;4923;52.520;13.494;2023-05-10T00:42:43;10.40;1.00
9768;DHT22;4923;52.520;13.494;2023-05-10T00:45:30;10.30;1.00
9768;DHT22;4923;52.520;13.494;2023-05-10T00:48:17;10.30;1.00
9768;DHT22;4923;52.520;13.494;2023-05-10T00:51:04;10.30;1.00
9768;DHT22;4923;52.520;13.494;2023-05-10T00:53:51;10.20;1.00
9768;DHT22;4923;52.520;13.494;2023-05-10T00:56:38;10.20;1.00
9768;DHT22;4923;52.520;13.494;2023-05-10T00:59:27;10.20;1.00
9768;DHT22;4923;52.520;13.494;2023-05-10T01:02:14;10.20;1.00
9768;DHT22;4923;52.520;13.494;2023-05-10T01:05:02;10.10;1.00
9768;DHT22;4923;52.520;13.494;2023-05-10T01:07:50;10.10;1.00
9768;DHT22;4923;52.520;13.494;2023-05-10T01:10:37;10.00;1.00
9768;DHT22;4923;52.520;13.494;2023-05-10T01:13:32;10.00;1.00
9768;DHT22;4923;52.520;13.494;2023-05-10T01:16:21;9.90;1.00
9768;DHT22;4923;52.520;13.494;2023-05-10T01:19:15;9.90;1.00
9768;DHT22;4923;52.520;13.494;2023-05-10T01:22:11;9.80;1.00
9768;DHT22;4923;52.520;13.494;2023-05-10T01:25:19;9.80;1.00
9768;DHT22;4923;52.520;13.494;2023-05-10T01:28:28;9.70;1.00
9768;DHT22;4923;52.520;13.494;2023-05-10T01:31:37;9.70;1.00
9768;DHT22;4923;52.520;13.494;2023-05-10T01:34:35;9.70;1.00
9768;DHT22;4923;52.520;13.494;2023-05-10T01:37:28;9.70;1.00
9768;DHT22;4923;52.520;13.494;2023-05-10T01:40:22;9.60;1.00
9768;DHT22;4923;52.520;13.494;2023-05-10T01:43:14;9.60;1.00
9768;DHT22;4923;52.520;13.494;2023-05-10T01:46:09;9.60;1.00
9768;DHT22;4923;52.520;13.494;2023-05-10T01:48:58;9.60;1.00
9768;DHT22;4923;52.520;13.494;2023-05-10T01:51:51;9.50;1.00
9768;DHT22;4923;52.520;13.494;2023-05-10T01:54:44;9.60;1.00
9768;DHT22;4923;52.520;13.494;2023-05-10T01:57:36;9.40;1.00
9768;DHT22;4923;52.520;13.494;2023-05-10T02:00:25;9.40;1.00
9768;DHT22;4923;52.520;13.494;2023-05-10T02:03:13;9.30;1.00
9768;DHT22;4923;52.520;13.494;2023-05-10T02:06:02;9.30;1.00
9768;DHT22;4923;52.520;13.494;2023-05-10T02:08:52;9.20;1.00
9768;DHT22;4923;52.520;13.494;2023-05-10T02:11:41;9.30;1.00
9768;DHT22;4923;52.520;13.494;2023-05-10T02:14:30;9.20;1.00
9768;DHT22;4923;52.520;13.494;2023-05-10T02:17:18;9.20;1.00
9768;DHT22;4923;52.520;13.494;2023-05-10T02:20:06;9.20;1.00
9768;DHT22;4923;52.520;13.494;2023-05-10T02:22:55;9.20;1.00
9768;DHT22;4923;52.520;13.494;2023-05-10T02:25:45;9.10;1.00
9768;DHT22;4923;52.520;13.494;2023-05-10T02:28:35;9.00;1.00
9768;DHT22;4923;52.520;13.494;2023-05-10T02:31:23;9.00;1.00
9768;DHT22;4923;52.520;13.494;2023-05-10T02:34:10;9.00;1.00
9768;DHT22;4923;52.520;13.494;2023-05-10T02:36:58;9.00;1.00
9768;DHT22;4923;52.520;13.494;2023-05-10T02:39:46;9.00;1.00
9768;DHT22;4923;52.520;13.494;2023-05-10T02:42:36;8.90;1.00
9768;DHT22;4923;52.520;13.494;2023-05-10T02:45:27;8.90;1.00
9768;DHT22;4923;52.520;13.494;2023-05-10T02:48:15;8.90;1.00
9768;DHT22;4923;52.520;13.494;2023-05-10T02:51:05;8.80;1.00
9768;DHT22;4923;52.520;13.494;2023-05-10T02:53:53;8.90;1.00
9768;DHT22;4923;52.520;13.494;2023-05-10T02:56:47;8.90;1.00
9768;DHT22;4923;52.520;13.494;2023-05-10T02:59:38;8.90;1.00
9768;DHT22;4923;52.520;13.494;2023-05-10T03:02:25;8.90;1.00
9768;DHT22;4923;52.520;13.494;2023-05-10T03:05:12;8.90;1.00
9768;DHT22;4923;52.520;13.494;2023-05-10T03:07:59;8.90;1.00
9768;DHT22;4923;52.520;13.494;2023-05-10T03:10:55;8.90;1.00
9768;DHT22;4923;52.520;13.494;2023-05-10T03:13:56;8.90;1.00
9768;DHT22;4923;52.520;13.494;2023-05-10T03:16:54;8.80;1.00
9768;DHT22;4923;52.520;13.494;2023-05-10T03:19:46;8.90;1.00
9768;DHT22;4923;52.520;13.494;2023-05-10T03:22:37;8.90;1.00
9768;DHT22;4923;52.520;13.494;2023-05-10T03:25:24;8.80;1.00
9768;DHT22;4923;52.520;13.494;2023-05-10T03:28:12;8.80;1.00
9768;DHT22;4923;52.520;13.494;2023-05-10T03:31:00;8.80;1.00
9768;DHT22;4923;52.520;13.494;2023-05-10T03:33:51;8.80;1.00
9768;DHT22;4923;52.520;13.494;2023-05-10T03:36:38;8.80;1.00
9768;DHT22;4923;52.520;13.494;2023-05-10T03:39:25;8.80;1.00
9768;DHT22;4923;52.520;13.494;2023-05-10T03:42:11;8.80;1.00
9768;DHT22;4923;52.520;13.494;2023-05-10T03:44:58;8.70;1.00
9768;DHT22;4923;52.520;13.494;2023-05-10T03:47:45;8.80;1.00
9768;DHT22;4923;52.520;13.494;2023-05-10T03:50:33;8.80;1.00
9768;DHT22;4923;52.520;13.494;2023-05-10T03:53:20;8.90;1.00
9768;DHT22;4923;52.520;13.494;2023-05-10T03:56:08;8.90;1.00
9768;DHT22;4923;52.520;13.494;2023-05-10T03:58:55;8.90;1.00
9768;DHT22;4923;52.520;13.494;2023-05-10T04:01:42;9.00;1.00
9768;DHT22;4923;52.520;13.494;2023-05-10T04:04:28;9.00;1.00
9768;DHT22;4923;52.520;13.494;2023-05-10T04:07:16;9.00;1.00
9768;DHT22;4923;52.520;13.494;2023-05-10T04:10:04;9.10;1.00
9768;DHT22;4923;52.520;13.494;2023-05-10T04:12:51;9.20;1.00
9768;DHT22;4923;52.520;13.494;2023-05-10T04:15:38;9.30;1.00
9768;DHT22;4923;52.520;13.494;2023-05-10T04:18:25;9.70;1.00
9768;DHT22;4923;52.520;13.494;2023-05-10T04:21:12;10.30;1.00
9768;DHT22;4923;52.520;13.494;2023-05-10T04:24:00;10.80;1.00
9768;DHT22;4923;52.520;13.494;2023-05-10T04:26:47;11.30;1.00
9768;DHT22;4923;52.520;13.494;2023-05-10T04:29:34;11.70;1.00
9768;DHT22;4923;52.520;13.494;2023-05-10T04:32:21;11.90;1.00
9768;DHT22;4923;52.520;13.494;2023-05-10T04:35:08;12.20;1.00
9768;DHT22;4923;52.520;13.494;2023-05-10T04:37:56;12.40;1.00
9768;DHT22;4923;52.520;13.494;2023-05-10T04:40:44;12.50;1.00
9768;DHT22;4923;52.520;13.494;2023-05-10T04:43:31;12.50;1.00
9768;DHT22;4923;52.520;13.494;2023-05-10T04:46:18;12.60;1.00
9768;DHT22;4923;52.520;13.494;2023-05-10T04:49:05;12.70;1.00
9768;DHT22;4923;52.520;13.494;2023-05-10T04:51:52;12.70;1.00
9768;DHT22;4923;52.520;13.494;2023-05-10T04:54:38;12.60;1.00
9768;DHT22;4923;52.520;13.494;2023-05-10T04:57:27;12.60;1.00
9768;DHT22;4923;52.520;13.494;2023-05-10T05:00:14;12.60;1.00
9768;DHT22;4923;52.520;13.494;2023-05-10T05:03:01;12.70;1.00
9768;DHT22;4923;52.520;13.494;2023-05-10T05:05:48;12.70;1.00
9768;DHT22;4923;52.520;13.494;2023-05-10T05:08:35;12.90;1.00
9768;DHT22;4923;52.520;13.494;2023-05-10T05:11:22;13.10;1.00
9768;DHT22;4923;52.520;13.494;2023-05-10T05:14:10;13.40;1.00
9768;DHT22;4923;52.520;13.494;2023-05-10T05:16:57;13.50;1.00
9768;DHT22;4923;52.520;13.494;2023-05-10T05:19:44;13.60;1.00
9768;DHT22;4923;52.520;13.494;2023-05-10T05:22:31;13.60;1.00
9768;DHT22;4923;52.520;13.494;2023-05-10T05:25:17;13.60;1.00
9768;DHT22;4923;52.520;13.494;2023-05-10T05:28:04;13.70;1.00
9768;DHT22;4923;52.520;13.494;2023-05-10T05:30:52;13.90;1.00
9768;DHT22;4923;52.520;13.494;2023-05-10T05:33:39;14.30;1.00
9768;DHT22;4923;52.520;13.494;2023-05-10T05:36:26;14.80;1.00
9768;DHT22;4923;52.520;13.494;2023-05-10T05:39:13;15.10;1.00
9768;DHT22;4923;52.520;13.494;2023-05-10T05:42:00;15.00;1.00
9768;DHT22;4923;52.520;13.494;2023-05-10T05:44:47;14.80;1.00
9768;DHT22;4923;52.520;13.494;2023-05-10T05:47:35;14.70;1.00
9768;DHT22;4923;52.520;13.494;2023-05-10T05:50:22;14.50;1.00
9768;DHT22;4923;52.520;13.494;2023-05-10T05:53:09;14.40;1.00
9768;DHT22;4923;52.520;13.494;2023-05-10T05:55:57;14.50;1.00
9768;DHT22;4923;52.520;13.494;2023-05-10T05:58:44;14.50;1.00
9768;DHT22;4923;52.520;13.494;2023-05-10T06:01:31;14.50;1.00
9768;DHT22;4923;52.520;13.494;2023-05-10T06:04:19;14.60;1.00
9768;DHT22;4923;52.520;13.494;2023-05-10T06:07:06;14.60;1.00
9768;DHT22;4923;52.520;13.494;2023-05-10T06:09:53;14.70;1.00
9768;DHT22;4923;52.520;13.494;2023-05-10T06:12:40;14.70;1.00
9768;DHT22;4923;52.520;13.494;2023-05-10T06:15:27;14.70;1.00
9768;DHT22;4923;52.520;13.494;2023-05-10T06:18:14;14.80;1.00
9768;DHT22;4923;52.520;13.494;2023-05-10T06:21:02;14.90;1.00
9768;DHT22;4923;52.520;13.494;2023-05-10T06:23:49;15.00;1.00
9768;DHT22;4923;52.520;13.494;2023-05-10T06:26:36;15.10;1.00
9768;DHT22;4923;52.520;13.494;2023-05-10T06:29:23;15.30;1.00
9768;DHT22;4923;52.520;13.494;2023-05-10T06:32:09;15.30;1.00
9768;DHT22;4923;52.520;13.494;2023-05-10T06:34:56;15.40;1.00
9768;DHT22;4923;52.520;13.494;2023-05-10T06:37:44;15.60;1.00
9768;DHT22;4923;52.520;13.494;2023-05-10T06:40:32;15.70;1.00
9768;DHT22;4923;52.520;13.494;2023-05-10T06:43:19;15.80;1.00
9768;DHT22;4923;52.520;13.494;2023-05-10T06:46:06;16.00;1.00
9768;DHT22;4923;52.520;13.494;2023-05-10T06:48:53;16.10;1.00
9768;DHT22;4923;52.520;13.494;2023-05-10T06:51:40;16.30;1.00
9768;DHT22;4923;52.520;13.494;2023-05-10T06:54:28;16.40;1.00
9768;DHT22;4923;52.520;13.494;2023-05-10T06:57:15;16.50;1.00
9768;DHT22;4923;52.520;13.494;2023-05-10T07:00:04;16.60;1.00
9768;DHT22;4923;52.520;13.494;2023-05-10T07:02:51;16.70;1.00
9768;DHT22;4923;52.520;13.494;2023-05-10T07:05:38;16.70;1.00
9768;DHT22;4923;52.520;13.494;2023-05-10T07:08:25;16.70;1.00
9768;DHT22;4923;52.520;13.494;2023-05-10T07:11:13;16.70;1.00
9768;DHT22;4923;52.520;13.494;2023-05-10T07:14:00;16.80;1.00
9768;DHT22;4923;52.520;13.494;2023-05-10T07:16:48;16.90;1.00
9768;DHT22;4923;52.520;13.494;2023-05-10T07:19:35;16.90;1.00
9768;DHT22;4923;52.520;13.494;2023-05-10T07:22:21;16.90;1.00
9768;DHT22;4923;52.520;13.494;2023-05-10T07:25:09;16.80;1.00
9768;DHT22;4923;52.520;13.494;2023-05-10T07:27:57;17.00;1.00
9768;DHT22;4923;52.520;13.494;2023-05-10T07:30:44;17.20;1.00
9768;DHT22;4923;52.520;13.494;2023-05-10T07:33:31;17.20;1.00
9768;DHT22;4923;52.520;13.494;2023-05-10T07:36:18;17.20;1.00
9768;DHT22;4923;52.520;13.494;2023-05-10T07:39:05;17.40;1.00
9768;DHT22;4923;52.520;13.494;2023-05-10T07:41:52;17.50;1.00
9768;DHT22;4923;52.520;13.494;2023-05-10T07:44:41;17.50;1.00
9768;DHT22;4923;52.520;13.494;2023-05-10T07:47:27;17.50;1.00
9768;DHT22;4923;52.520;13.494;2023-05-10T07:50:14;17.60;1.00
9768;DHT22;4923;52.520;13.494;2023-05-10T07:53:01;17.80;1.00
9768;DHT22;4923;52.520;13.494;2023-05-10T07:55:50;17.90;1.00
9768;DHT22;4923;52.520;13.494;2023-05-10T07:58:37;17.80;1.00
9768;DHT22;4923;52.520;13.494;2023-05-10T08:01:26;17.80;1.00
9768;DHT22;4923;52.520;13.494;2023-05-10T08:04:12;17.90;1.00
9768;DHT22;4923;52.520;13.494;2023-05-10T08:06:59;17.90;1.00
9768;DHT22;4923;52.520;13.494;2023-05-10T08:09:46;18.10;1.00
9768;DHT22;4923;52.520;13.494;2023-05-10T08:12:33;18.20;1.00
9768;DHT22;4923;52.520;13.494;2023-05-10T08:15:20;18.10;1.00
9768;DHT22;4923;52.520;13.494;2023-05-10T08:18:08;18.20;1.00
9768;DHT22;4923;52.520;13.494;2023-05-10T08:20:55;18.20;1.00
9768;DHT22;4923;52.520;13.494;2023-05-10T08:23:42;18.30;1.00
9768;DHT22;4923;52.520;13.494;2023-05-10T08:26:30;18.30;1.00
9768;DHT22;4923;52.520;13.494;2023-05-10T08:29:17;18.40;1.00
9768;DHT22;4923;52.520;13.494;2023-05-10T08:32:04;18.40;1.00
9768;DHT22;4923;52.520;13.494;2023-05-10T08:34:52;18.40;1.00
9768;DHT22;4923;52.520;13.494;2023-05-10T08:37:39;18.50;1.00
9768;DHT22;4923;52.520;13.494;2023-05-10T08:40:26;18.60;1.00
9768;DHT22;4923;52.520;13.494;2023-05-10T08:43:13;18.80;1.00
9768;DHT22;4923;52.520;13.494;2023-05-10T08:46:01;19.00;1.00
9768;DHT22;4923;52.520;13.494;2023-05-10T08:48:49;19.00;1.00
9768;DHT22;4923;52.520;13.494;2023-05-10T08:51:40;19.10;1.00
9768;DHT22;4923;52.520;13.494;2023-05-10T08:54:31;19.10;1.00
9768;DHT22;4923;52.520;13.494;2023-05-10T08:57:19;19.20;1.00
9768;DHT22;4923;52.520;13.494;2023-05-10T09:00:07;19.20;1.00
9768;DHT22;4923;52.520;13.494;2023-05-10T09:02:55;19.20;1.00
9768;DHT22;4923;52.520;13.494;2023-05-10T09:05:42;19.30;1.00
9768;DHT22;4923;52.520;13.494;2023-05-10T09:08:31;19.40;1.00
9768;DHT22;4923;52.520;13.494;2023-05-10T09:11:20;19.50;1.00
9768;DHT22;4923;52.520;13.494;2023-05-10T09:14:07;19.60;1.00
9768;DHT22;4923;52.520;13.494;2023-05-10T09:16:55;19.60;1.00
9768;DHT22;4923;52.520;13.494;2023-05-10T09:19:42;19.70;1.00
9768;DHT22;4923;52.520;13.494;2023-05-10T09:22:31;19.90;1.00
9768;DHT22;4923;52.520;13.494;2023-05-10T09:25:19;20.00;1.00
9768;DHT22;4923;52.520;13.494;2023-05-10T09:28:08;20.10;1.00
9768;DHT22;4923;52.520;13.494;2023-05-10T09:30:55;20.20;1.00
9768;DHT22;4923;52.520;13.494;2023-05-10T09:33:44;20.30;1.00
9768;DHT22;4923;52.520;13.494;2023-05-10T09:36:31;20.10;1.00
9768;DHT22;4923;52.520;13.494;2023-05-10T09:39:18;20.10;1.00
9768;DHT22;4923;52.520;13.494;2023-05-10T09:42:07;20.20;1.00
9768;DHT22;4923;52.520;13.494;2023-05-10T09:45:00;20.30;1.00
9768;DHT22;4923;52.520;13.494;2023-05-10T09:47:47;20.40;1.00
9768;DHT22;4923;52.520;13.494;2023-05-10T09:50:34;20.60;1.00
9768;DHT22;4923;52.520;13.494;2023-05-10T09:53:21;20.70;1.00
9768;DHT22;4923;52.520;13.494;2023-05-10T09:56:08;20.80;1.00
9768;DHT22;4923;52.520;13.494;2023-05-10T09:59:03;20.70;1.00
9768;DHT22;4923;52.520;13.494;2023-05-10T10:01:50;20.60;1.00
9768;DHT22;4923;52.520;13.494;2023-05-10T10:04:39;20.80;1.00
9768;DHT22;4923;52.520;13.494;2023-05-10T10:07:26;21.00;1.00
9768;DHT22;4923;52.520;13.494;2023-05-10T10:10:13;21.10;1.00
9768;DHT22;4923;52.520;13.494;2023-05-10T10:13:02;21.00;1.00
9768;DHT22;4923;52.520;13.494;2023-05-10T10:15:52;21.10;1.00
9768;DHT22;4923;52.520;13.494;2023-05-10T10:18:42;21.30;1.00
9768;DHT22;4923;52.520;13.494;2023-05-10T10:21:29;21.20;1.00
9768;DHT22;4923;52.520;13.494;2023-05-10T10:24:16;21.20;1.00
9768;DHT22;4923;52.520;13.494;2023-05-10T10:27:13;21.30;1.00
9768;DHT22;4923;52.520;13.494;2023-05-10T10:30:06;21.50;1.00
9768;DHT22;4923;52.520;13.494;2023-05-10T10:33:20;21.50;1.00
9768;DHT22;4923;52.520;13.494;2023-05-10T10:36:15;21.60;1.00
9768;DHT22;4923;52.520;13.494;2023-05-10T10:39:07;21.60;1.00
9768;DHT22;4923;52.520;13.494;2023-05-10T10:41:56;21.70;1.00
9768;DHT22;4923;52.520;13.494;2023-05-10T10:44:43;21.80;1.00
9768;DHT22;4923;52.520;13.494;2023-05-10T10:47:30;21.70;1.00
9768;DHT22;4923;52.520;13.494;2023-05-10T10:50:20;21.70;1.00
9768;DHT22;4923;52.520;13.494;2023-05-10T10:53:10;21.90;1.00
9768;DHT22;4923;52.520;13.494;2023-05-10T10:56:07;21.90;1.00
9768;DHT22;4923;52.520;13.494;2023-05-10T10:58:59;22.00;1.00
9768;DHT22;4923;52.520;13.494;2023-05-10T11:01:51;22.00;1.00
9768;DHT22;4923;52.520;13.494;2023-05-10T11:04:41;22.00;1.00
9768;DHT22;4923;52.520;13.494;2023-05-10T11:07:31;22.00;1.00
9768;DHT22;4923;52.520;13.494;2023-05-10T11:10:19;21.90;1.00
9768;DHT22;4923;52.520;13.494;2023-05-10T11:13:07;22.10;1.00
9768;DHT22;4923;52.520;13.494;2023-05-10T11:15:54;22.10;1.00
9768;DHT22;4923;52.520;13.494;2023-05-10T11:19:02;22.20;1.00
9768;DHT22;4923;52.520;13.494;2023-05-10T11:21:50;22.30;1.00
9768;DHT22;4923;52.520;13.494;2023-05-10T11:24:38;22.30;1.00
9768;DHT22;4923;52.520;13.494;2023-05-10T11:27:25;22.50;1.00
9768;DHT22;4923;52.520;13.494;2023-05-10T11:30:13;22.70;1.00
9768;DHT22;4923;52.520;13.494;2023-05-10T11:33:00;22.70;1.00
9768;DHT22;4923;52.520;13.494;2023-05-10T11:35:47;22.70;1.00
9768;DHT22;4923;52.520;13.494;2023-05-10T11:38:33;22.70;1.00
9768;DHT22;4923;52.520;13.494;2023-05-10T11:41:23;22.80;1.00
9768;DHT22;4923;52.520;13.494;2023-05-10T11:44:10;22.90;1.00
9768;DHT22;4923;52.520;13.494;2023-05-10T11:46:58;22.80;1.00
9768;DHT22;4923;52.520;13.494;2023-05-10T11:49:46;22.90;1.00
9768;DHT22;4923;52.520;13.494;2023-05-10T11:52:35;23.00;1.00
9768;DHT22;4923;52.520;13.494;2023-05-10T11:55:23;23.10;1.00
9768;DHT22;4923;52.520;13.494;2023-05-10T11:58:11;23.10;1.00
9768;DHT22;4923;52.520;13.494;2023-05-10T12:00:58;23.20;1.00
9768;DHT22;4923;52.520;13.494;2023-05-10T12:03:46;23.10;1.00
9768;DHT22;4923;52.520;13.494;2023-05-10T12:06:37;23.20;1.00
9768;DHT22;4923;52.520;13.494;2023-05-10T12:09:26;23.30;1.00
9768;DHT22;4923;52.520;13.494;2023-05-10T12:12:16;23.30;1.00
9768;DHT22;4923;52.520;13.494;2023-05-10T12:15:06;23.30;1.00
9768;DHT22;4923;52.520;13.494;2023-05-10T12:17:57;23.40;1.00
9768;DHT22;4923;52.520;13.494;2023-05-10T12:20:44;23.50;1.00
9768;DHT22;4923;52.520;13.494;2023-05-10T12:23:30;23.50;1.00
9768;DHT22;4923;52.520;13.494;2023-05-10T12:26:17;23.60;1.00
9768;DHT22;4923;52.520;13.494;2023-05-10T12:29:15;23.60;1.00
9768;DHT22;4923;52.520;13.494;2023-05-10T12:32:04;23.70;1.00
9768;DHT22;4923;52.520;13.494;2023-05-10T12:34:52;23.70;1.00
9768;DHT22;4923;52.520;13.494;2023-05-10T12:37:39;23.80;1.00
9768;DHT22;4923;52.520;13.494;2023-05-10T12:40:26;23.70;1.00
9768;DHT22;4923;52.520;13.494;2023-05-10T12:43:13;23.70;1.00
9768;DHT22;4923;52.520;13.494;2023-05-10T12:46:04;23.80;1.00
9768;DHT22;4923;52.520;13.494;2023-05-10T12:48:53;23.80;1.00
9768;DHT22;4923;52.520;13.494;2023-05-10T12:51:41;23.50;1.00
9768;DHT22;4923;52.520;13.494;2023-05-10T12:54:28;23.50;1.00
9768;DHT22;4923;52.520;13.494;2023-05-10T12:57:15;23.60;1.00
9768;DHT22;4923;52.520;13.494;2023-05-10T13:00:02;23.80;1.00
9768;DHT22;4923;52.520;13.494;2023-05-10T13:02:50;23.90;1.00
9768;DHT22;4923;52.520;13.494;2023-05-10T13:05:39;23.90;1.00
9768;DHT22;4923;52.520;13.494;2023-05-10T13:08:26;23.80;1.00
9768;DHT22;4923;52.520;13.494;2023-05-10T13:11:13;23.70;1.00
9768;DHT22;4923;52.520;13.494;2023-05-10T13:14:02;23.80;1.00
9768;DHT22;4923;52.520;13.494;2023-05-10T13:16:49;24.00;1.00
9768;DHT22;4923;52.520;13.494;2023-05-10T13:19:36;24.10;1.00
9768;DHT22;4923;52.520;13.494;2023-05-10T13:22:24;24.00;1.00
9768;DHT22;4923;52.520;13.494;2023-05-10T13:25:12;24.20;1.00
9768;DHT22;4923;52.520;13.494;2023-05-10T13:27:59;24.30;1.00
9768;DHT22;4923;52.520;13.494;2023-05-10T13:30:46;24.30;1.00
9768;DHT22;4923;52.520;13.494;2023-05-10T13:33:33;24.30;1.00
9768;DHT22;4923;52.520;13.494;2023-05-10T13:36:20;24.20;1.00
9768;DHT22;4923;52.520;13.494;2023-05-10T13:39:08;24.10;1.00
9768;DHT22;4923;52.520;13.494;2023-05-10T13:41:55;24.00;1.00
9768;DHT22;4923;52.520;13.494;2023-05-10T13:44:42;24.00;1.00
9768;DHT22;4923;52.520;13.494;2023-05-10T13:47:28;24.10;1.00
9768;DHT22;4923;52.520;13.494;2023-05-10T13:50:16;24.20;1.00
9768;DHT22;4923;52.520;13.494;2023-05-10T13:53:03;24.10;1.00
9768;DHT22;4923;52.520;13.494;2023-05-10T13:55:52;24.30;1.00
9768;DHT22;4923;52.520;13.494;2023-05-10T13:58:39;24.30;1.00
9768;DHT22;4923;52.520;13.494;2023-05-10T14:01:26;24.50;1.00
9768;DHT22;4923;52.520;13.494;2023-05-10T14:04:12;24.50;1.00
9768;DHT22;4923;52.520;13.494;2023-05-10T14:06:59;24.60;1.00
9768;DHT22;4923;52.520;13.494;2023-05-10T14:09:46;24.60;1.00
9768;DHT22;4923;52.520;13.494;2023-05-10T14:12:34;24.70;1.00
9768;DHT22;4923;52.520;13.494;2023-05-10T14:15:21;24.90;1.00
9768;DHT22;4923;52.520;13.494;2023-05-10T14:18:08;24.90;1.00
9768;DHT22;4923;52.520;13.494;2023-05-10T14:20:55;24.70;1.00
9768;DHT22;4923;52.520;13.494;2023-05-10T14:23:42;24.70;1.00
9768;DHT22;4923;52.520;13.494;2023-05-10T14:26:29;24.80;1.00
9768;DHT22;4923;52.520;13.494;2023-05-10T14:29:17;24.70;1.00
9768;DHT22;4923;52.520;13.494;2023-05-10T14:32:04;24.70;1.00
9768;DHT22;4923;52.520;13.494;2023-05-10T14:34:51;24.90;1.00
9768;DHT22;4923;52.520;13.494;2023-05-10T14:37:38;25.00;1.00
9768;DHT22;4923;52.520;13.494;2023-05-10T14:40:25;25.10;1.00
9768;DHT22;4923;52.520;13.494;2023-05-10T14:43:11;25.00;1.00
9768;DHT22;4923;52.520;13.494;2023-05-10T14:46:00;25.10;1.00
9768;DHT22;4923;52.520;13.494;2023-05-10T14:48:47;25.00;1.00
9768;DHT22;4923;52.520;13.494;2023-05-10T14:51:33;24.90;1.00
9768;DHT22;4923;52.520;13.494;2023-05-10T14:54:22;24.90;1.00
9768;DHT22;4923;52.520;13.494;2023-05-10T14:57:09;24.90;1.00
9768;DHT22;4923;52.520;13.494;2023-05-10T14:59:56;25.10;1.00
9768;DHT22;4923;52.520;13.494;2023-05-10T15:02:44;25.00;1.00
9768;DHT22;4923;52.520;13.494;2023-05-10T15:05:30;25.00;1.00
9768;DHT22;4923;52.520;13.494;2023-05-10T15:08:17;25.10;1.00
9768;DHT22;4923;52.520;13.494;2023-05-10T15:11:04;25.20;1.00
9768;DHT22;4923;52.520;13.494;2023-05-10T15:13:51;25.10;1.00
9768;DHT22;4923;52.520;13.494;2023-05-10T15:16:38;25.20;1.00
9768;DHT22;4923;52.520;13.494;2023-05-10T15:19:27;25.10;1.00
9768;DHT22;4923;52.520;13.494;2023-05-10T15:22:15;24.90;1.00
9768;DHT22;4923;52.520;13.494;2023-05-10T15:25:02;24.90;1.00
9768;DHT22;4923;52.520;13.494;2023-05-10T15:27:48;24.90;1.00
9768;DHT22;4923;52.520;13.494;2023-05-10T15:30:35;24.90;1.00
9768;DHT22;4923;52.520;13.494;2023-05-10T15:33:22;24.60;1.00
9768;DHT22;4923;52.520;13.494;2023-05-10T15:36:11;24.60;1.00
9768;DHT22;4923;52.520;13.494;2023-05-10T15:38:58;24.60;1.00
9768;DHT22;4923;52.520;13.494;2023-05-10T15:41:45;24.70;1.00
9768;DHT22;4923;52.520;13.494;2023-05-10T15:44:32;24.50;1.00
9768;DHT22;4923;52.520;13.494;2023-05-10T15:47:20;24.50;1.00
9768;DHT22;4923;52.520;13.494;2023-05-10T15:50:08;24.70;1.00
9768;DHT22;4923;52.520;13.494;2023-05-10T15:52:57;25.00;1.00
9768;DHT22;4923;52.520;13.494;2023-05-10T15:55:43;25.00;1.00
9768;DHT22;4923;52.520;13.494;2023-05-10T15:58:30;24.90;1.00
9768;DHT22;4923;52.520;13.494;2023-05-10T16:01:17;24.90;1.00
9768;DHT22;4923;52.520;13.494;2023-05-10T16:04:04;24.80;1.00
9768;DHT22;4923;52.520;13.494;2023-05-10T16:06:51;24.80;1.00
9768;DHT22;4923;52.520;13.494;2023-05-10T16:09:39;24.70;1.00
9768;DHT22;4923;52.520;13.494;2023-05-10T16:12:26;24.70;1.00
9768;DHT22;4923;52.520;13.494;2023-05-10T16:15:13;24.70;1.00
9768;DHT22;4923;52.520;13.494;2023-05-10T16:18:00;24.70;1.00
9768;DHT22;4923;52.520;13.494;2023-05-10T16:20:47;24.70;1.00
9768;DHT22;4923;52.520;13.494;2023-05-10T16:23:34;24.80;1.00
9768;DHT22;4923;52.520;13.494;2023-05-10T16:26:22;24.70;1.00
9768;DHT22;4923;52.520;13.494;2023-05-10T16:29:09;24.50;1.00
9768;DHT22;4923;52.520;13.494;2023-05-10T16:31:56;24.40;1.00
9768;DHT22;4923;52.520;13.494;2023-05-10T16:34:43;24.30;1.00
9768;DHT22;4923;52.520;13.494;2023-05-10T16:37:30;24.20;1.00
9768;DHT22;4923;52.520;13.494;2023-05-10T16:40:17;24.10;1.00
9768;DHT22;4923;52.520;13.494;2023-05-10T16:43:05;24.00;1.00
9768;DHT22;4923;52.520;13.494;2023-05-10T16:45:52;23.80;1.00
9768;DHT22;4923;52.520;13.494;2023-05-10T16:48:39;23.70;1.00
9768;DHT22;4923;52.520;13.494;2023-05-10T16:51:26;23.70;1.00
9768;DHT22;4923;52.520;13.494;2023-05-10T16:54:13;23.50;1.00
9768;DHT22;4923;52.520;13.494;2023-05-10T16:57:01;23.60;1.00
9768;DHT22;4923;52.520;13.494;2023-05-10T16:59:50;23.60;1.00
9768;DHT22;4923;52.520;13.494;2023-05-10T17:02:38;23.70;1.00
9768;DHT22;4923;52.520;13.494;2023-05-10T17:05:25;23.80;1.00
9768;DHT22;4923;52.520;13.494;2023-05-10T17:08:17;24.00;1.00
9768;DHT22;4923;52.520;13.494;2023-05-10T17:11:04;23.90;1.00
9768;DHT22;4923;52.520;13.494;2023-05-10T17:13:51;23.70;1.00
9768;DHT22;4923;52.520;13.494;2023-05-10T17:16:40;23.40;1.00
9768;DHT22;4923;52.520;13.494;2023-05-10T17:19:26;23.30;1.00
9768;DHT22;4923;52.520;13.494;2023-05-10T17:22:13;23.30;1.00
9768;DHT22;4923;52.520;13.494;2023-05-10T17:25:00;23.40;1.00
9768;DHT22;4923;52.520;13.494;2023-05-10T17:27:47;23.60;1.00
9768;DHT22;4923;52.520;13.494;2023-05-10T17:30:34;23.50;1.00
9768;DHT22;4923;52.520;13.494;2023-05-10T17:33:22;23.30;1.00
9768;DHT22;4923;52.520;13.494;2023-05-10T17:36:09;23.00;1.00
9768;DHT22;4923;52.520;13.494;2023-05-10T17:38:56;22.60;1.00
9768;DHT22;4923;52.520;13.494;2023-05-10T17:41:43;22.30;1.00
9768;DHT22;4923;52.520;13.494;2023-05-10T17:44:30;21.90;1.00
9768;DHT22;4923;52.520;13.494;2023-05-10T17:47:17;21.60;1.00
9768;DHT22;4923;52.520;13.494;2023-05-10T17:50:07;21.30;1.00
9768;DHT22;4923;52.520;13.494;2023-05-10T17:52:54;21.10;1.00
9768;DHT22;4923;52.520;13.494;2023-05-10T17:55:41;20.90;1.00
9768;DHT22;4923;52.520;13.494;2023-05-10T17:58:28;20.70;1.00
9768;DHT22;4923;52.520;13.494;2023-05-10T18:01:15;20.40;1.00
9768;DHT22;4923;52.520;13.494;2023-05-10T18:04:02;20.20;1.00
9768;DHT22;4923;52.520;13.494;2023-05-10T18:06:50;20.00;1.00
9768;DHT22;4923;52.520;13.494;2023-05-10T18:09:48;19.60;1.00
9768;DHT22;4923;52.520;13.494;2023-05-10T18:12:35;19.50;1.00
9768;DHT22;4923;52.520;13.494;2023-05-10T18:15:22;19.30;1.00
9768;DHT22;4923;52.520;13.494;2023-05-10T18:18:08;19.20;1.00
9768;DHT22;4923;52.520;13.494;2023-05-10T18:20:56;19.00;1.00